Terminal Aerodrome Forecast
Issued by NWS

Current Version | Previous Version | Graphics & Text | Print | Product List | Glossary On
Versions: 1 2 3 4 5 6 7 8 9 10 11 12 13 14 15 16
000
FTUS41 KPBZ 201437 AAA
TAFHLG
TAF AMD
KHLG 201437Z 2015/2112 24004KT 1/4SM FG OVC002
     FM201530 00000KT 1SM BR SCT003
     FM201630 VRB04KT P6SM FEW250=

USA.gov is the U.S. government's official web portal to all federal, state and local government web resources and services.